createdAt,value
2019-02-22T00:02:46.793Z,68.72
2019-02-22T00:07:54.521Z,67.37
2019-02-22T00:13:02.307Z,66.04
2019-02-22T00:18:09.977Z,65.19
2019-02-22T00:23:17.612Z,71.08
2019-02-22T00:28:25.300Z,74.92
2019-02-22T00:33:33.020Z,72.91
2019-02-22T00:38:40.706Z,73.32
2019-02-22T00:43:48.396Z,74.33
2019-02-22T00:48:56.086Z,72.17
2019-02-22T00:54:03.772Z,75.16
2019-02-22T00:59:12.674Z,74.13
2019-02-22T01:04:20.388Z,75.41
2019-02-22T01:09:28.077Z,79.78
2019-02-22T01:14:35.760Z,74.27
2019-02-22T01:19:43.456Z,75.67
2019-02-22T01:24:51.123Z,82.63
2019-02-22T01:29:58.756Z,79.27
2019-02-22T01:35:06.491Z,80.42
2019-02-22T01:40:14.108Z,86.60
2019-02-22T01:45:21.765Z,83.57
2019-02-22T01:50:29.403Z,77.00
2019-02-22T01:55:37.088Z,80.64
2019-02-22T02:00:44.720Z,85.30
2019-02-22T02:05:52.384Z,84.75
2019-02-22T02:11:00.009Z,89.84
2019-02-22T02:16:07.654Z,87.75
2019-02-22T02:21:15.318Z,85.93
2019-02-22T02:26:22.969Z,82.76
2019-02-22T02:31:30.617Z,84.83
2019-02-22T02:36:38.290Z,85.22
2019-02-22T02:41:45.940Z,87.73
2019-02-22T02:46:53.770Z,92.89
2019-02-22T02:52:01.501Z,90.62
2019-02-22T02:57:09.248Z,95.63
2019-02-22T03:02:16.949Z,106.05
2019-02-22T03:07:24.574Z,95.34
2019-02-22T03:12:32.236Z,103.27
2019-02-22T03:17:39.913Z,96.58
2019-02-22T03:22:47.592Z,96.69
2019-02-22T03:27:55.299Z,101.91
2019-02-22T03:33:02.975Z,108.71
2019-02-22T03:38:10.915Z,102.97
2019-02-22T03:43:18.587Z,102.13
2019-02-22T03:48:26.696Z,101.15
2019-02-22T03:53:34.374Z,106.96
2019-02-22T03:58:42.043Z,98.80
2019-02-22T04:03:49.742Z,105.56
2019-02-22T04:08:57.473Z,111.31
2019-02-22T04:14:05.110Z,115.25
2019-02-22T04:19:12.829Z,111.38
2019-02-22T04:24:20.496Z,114.26
2019-02-22T04:29:28.227Z,125.71
2019-02-22T04:34:35.856Z,127.16
2019-02-22T04:39:43.509Z,130.78
2019-02-22T04:44:51.207Z,122.62
2019-02-22T04:49:58.886Z,123.88
2019-02-22T04:55:06.969Z,134.31
2019-02-22T05:00:14.649Z,126.12
2019-02-22T05:05:22.302Z,139.39
2019-02-22T05:10:29.985Z,141.29
2019-02-22T05:15:37.622Z,141.90
2019-02-22T05:20:45.292Z,148.87
2019-02-22T05:25:52.954Z,165.51
2019-02-22T05:31:00.739Z,155.48
2019-02-22T05:36:08.424Z,151.18
2019-02-22T05:41:16.177Z,146.31
2019-02-22T05:46:23.829Z,146.06
2019-02-22T05:51:31.760Z,146.73
2019-02-22T05:56:39.530Z,148.15
2019-02-22T06:01:47.248Z,147.61
2019-02-22T06:06:54.867Z,141.89
2019-02-22T06:12:04.066Z,148.41
2019-02-22T06:17:14.472Z,150.61
2019-02-22T06:22:29.092Z,156.29
2019-02-22T06:27:26.065Z,135.32
2019-02-22T06:32:33.782Z,143.07
2019-02-22T06:37:41.551Z,144.53
2019-02-22T06:42:49.164Z,144.88
2019-02-22T06:47:56.845Z,150.53
2019-02-22T06:53:04.540Z,141.16
2019-02-22T06:58:12.225Z,146.11
2019-02-22T07:03:19.923Z,151.58
2019-02-22T07:08:27.589Z,162.18
2019-02-22T07:13:35.293Z,145.08
2019-02-22T07:18:42.967Z,135.63
2019-02-22T07:23:50.705Z,138.06
2019-02-22T07:28:59.792Z,130.46
2019-02-22T07:34:07.489Z,133.87
2019-02-22T07:39:27.398Z,150.15
2019-02-22T07:44:24.244Z,133.48
2019-02-22T07:49:31.978Z,123.75
2019-02-22T07:54:39.693Z,130.48
2019-02-22T07:59:47.398Z,123.41
2019-02-22T08:04:55.071Z,125.87
2019-02-22T08:10:02.740Z,138.89
2019-02-22T08:15:10.473Z,122.22
2019-02-22T08:20:18.146Z,118.95
2019-02-22T08:25:26.014Z,109.78
2019-02-22T08:30:33.683Z,106.83
2019-02-22T08:35:41.382Z,108.96
2019-02-22T08:40:49.048Z,110.39
2019-02-22T08:45:57.545Z,108.31
2019-02-22T08:51:05.205Z,103.90
2019-02-22T08:56:12.952Z,104.74
2019-02-22T09:01:20.630Z,101.34
2019-02-22T09:06:28.413Z,100.58
2019-02-22T09:11:36.092Z,92.03
2019-02-22T09:16:43.778Z,90.64
2019-02-22T09:21:51.456Z,89.16
2019-02-22T09:26:59.225Z,90.24
2019-02-22T09:32:06.891Z,89.00
2019-02-22T09:37:14.565Z,89.11
2019-02-22T09:42:22.260Z,86.70
2019-02-22T09:47:29.964Z,86.32
2019-02-22T09:52:37.659Z,82.78
2019-02-22T09:57:45.463Z,81.39
2019-02-22T10:02:53.132Z,78.11
2019-02-22T10:08:00.881Z,77.87
2019-02-22T10:13:08.617Z,78.49
2019-02-22T10:18:16.516Z,80.01
2019-02-22T10:23:23.917Z,79.00
2019-02-22T10:28:31.676Z,81.97
2019-02-22T10:33:39.353Z,79.43
2019-02-22T10:38:47.042Z,80.18
2019-02-22T10:43:54.732Z,85.10
2019-02-22T10:49:02.668Z,81.45
2019-02-22T10:54:10.332Z,78.41
2019-02-22T10:59:17.984Z,77.49
2019-02-22T11:04:25.624Z,81.07
2019-02-22T11:09:33.260Z,81.26
2019-02-22T11:14:40.873Z,81.66
2019-02-22T11:19:48.584Z,87.03
2019-02-22T11:24:56.205Z,87.05
2019-02-22T11:30:04.026Z,85.02
2019-02-22T11:35:11.640Z,86.86
2019-02-22T11:40:19.438Z,89.15
2019-02-22T11:45:27.044Z,95.35
2019-02-22T11:50:34.733Z,90.18
2019-02-22T11:55:42.364Z,87.03
2019-02-22T12:00:50.025Z,83.91
2019-02-22T12:05:57.668Z,88.18
2019-02-22T12:11:05.337Z,82.91
2019-02-22T12:16:13.328Z,85.01
2019-02-22T12:21:23.040Z,74.97
2019-02-22T12:26:28.224Z,76.50
2019-02-22T12:31:36.008Z,77.73
2019-02-22T12:36:43.686Z,75.01
2019-02-22T12:41:53.615Z,75.78
2019-02-22T12:46:58.581Z,74.59
2019-02-22T12:52:06.336Z,76.89
2019-02-22T12:57:13.953Z,75.61
2019-02-22T13:02:21.714Z,73.11
2019-02-22T13:07:29.308Z,76.88
2019-02-22T13:12:37.028Z,82.86
2019-02-22T13:17:44.654Z,84.52
2019-02-22T13:22:52.345Z,91.62
2019-02-22T13:28:00.021Z,91.22
2019-02-22T13:33:07.753Z,85.05
2019-02-22T13:38:15.364Z,70.74
2019-02-22T13:43:23.128Z,73.37
2019-02-22T13:48:30.773Z,66.34
2019-02-22T13:53:38.812Z,60.27
2019-02-22T13:58:46.479Z,66.23
2019-02-22T14:03:54.204Z,65.11
2019-02-22T14:09:01.817Z,64.23
2019-02-22T14:14:09.492Z,63.53
2019-02-22T14:19:17.162Z,65.62
2019-02-22T14:24:24.940Z,61.56
2019-02-22T14:29:32.525Z,61.49
2019-02-22T14:34:40.867Z,67.24
2019-02-22T14:39:47.461Z,63.67
2019-02-22T14:44:55.200Z,66.03
2019-02-22T14:50:02.840Z,65.67
2019-02-22T14:55:10.525Z,71.69
2019-02-22T15:00:18.185Z,75.76
2019-02-22T15:05:25.877Z,78.16
2019-02-22T15:10:33.566Z,79.95
2019-02-22T15:15:41.300Z,82.07
2019-02-22T15:20:48.977Z,86.71
2019-02-22T15:25:56.682Z,86.73
2019-02-22T15:31:04.373Z,79.36
2019-02-22T15:36:12.133Z,83.84
2019-02-22T15:41:19.819Z,82.49
2019-02-22T15:46:27.553Z,86.64
2019-02-22T15:51:35.214Z,83.04
2019-02-22T15:56:42.938Z,72.23
2019-02-22T16:01:55.848Z,76.25
2019-02-22T16:07:00.221Z,80.65
2019-02-22T16:12:07.889Z,85.44
2019-02-22T16:17:15.573Z,83.55
2019-02-22T16:22:23.249Z,82.04
2019-02-22T16:27:30.953Z,82.03
2019-02-22T16:32:38.605Z,78.33
2019-02-22T16:37:46.290Z,82.85
2019-02-22T16:42:53.958Z,77.89
2019-02-22T16:48:01.937Z,88.21
2019-02-22T16:53:09.602Z,202.45
2019-02-22T16:58:17.261Z,107.65
2019-02-22T17:03:24.922Z,93.60
2019-02-22T17:08:32.604Z,134.84
2019-02-22T17:13:40.280Z,97.96
2019-02-22T17:18:47.981Z,88.80
2019-02-22T17:23:55.661Z,77.73
2019-02-22T17:29:03.413Z,86.11
2019-02-22T17:34:11.082Z,83.53
2019-02-22T17:39:18.768Z,96.05
2019-02-22T17:44:26.444Z,95.99
2019-02-22T17:49:34.105Z,88.24
2019-02-22T17:54:41.738Z,95.55
2019-02-22T17:59:49.494Z,99.12
2019-02-22T18:04:57.117Z,98.00
2019-02-22T18:10:04.756Z,103.83
2019-02-22T18:15:12.368Z,93.79
2019-02-22T18:20:20.229Z,93.95
2019-02-22T18:25:27.868Z,116.05
2019-02-22T18:30:35.500Z,102.68
2019-02-22T18:35:43.138Z,106.25
2019-02-22T18:40:50.814Z,94.42
2019-02-22T18:45:58.428Z,98.34
2019-02-22T18:51:06.173Z,97.83
2019-02-22T18:56:13.761Z,111.40
2019-02-22T19:01:21.420Z,98.73
2019-02-22T19:06:29.052Z,102.12
2019-02-22T19:11:36.788Z,99.49
2019-02-22T19:16:44.431Z,85.25
2019-02-22T19:21:52.098Z,85.57
2019-02-22T19:26:59.721Z,84.36
2019-02-22T19:32:07.353Z,85.83
2019-02-22T19:37:14.948Z,85.32
2019-02-22T19:42:22.649Z,88.17
2019-02-22T19:47:41.103Z,98.48
2019-02-22T19:52:37.437Z,98.25
2019-02-22T19:57:45.062Z,95.91
2019-02-22T20:02:52.707Z,90.36
2019-02-22T20:08:00.326Z,97.54
2019-02-22T20:13:07.983Z,82.49
2019-02-22T20:18:15.611Z,78.01
2019-02-22T20:23:23.257Z,70.45
2019-02-22T20:28:30.873Z,73.80
2019-02-22T20:33:38.680Z,76.66
2019-02-22T20:38:46.241Z,92.50
2019-02-22T20:43:53.981Z,74.45
2019-02-22T20:49:01.662Z,77.81
2019-02-22T20:54:09.420Z,78.68
2019-02-22T20:59:17.068Z,76.49
2019-02-22T21:04:25.074Z,75.22
2019-02-22T21:09:32.684Z,68.10
2019-02-22T21:14:40.493Z,64.47
2019-02-22T21:19:48.106Z,70.07
2019-02-22T21:24:55.844Z,69.47
2019-02-22T21:30:03.534Z,68.33
2019-02-22T21:35:11.264Z,59.11
2019-02-22T21:40:18.882Z,54.53
2019-02-22T21:45:26.869Z,55.12
2019-02-22T21:50:34.633Z,54.25
2019-02-22T21:55:42.300Z,54.15
2019-02-22T22:00:50.044Z,60.03
2019-02-22T22:05:58.004Z,54.09
2019-02-22T22:11:05.723Z,54.85
2019-02-22T22:16:13.405Z,56.23
2019-02-22T22:21:21.100Z,66.21
2019-02-22T22:26:28.757Z,69.88
2019-02-22T22:31:37.285Z,75.16
2019-02-22T22:36:44.052Z,71.57
2019-02-22T22:41:51.793Z,68.75
2019-02-22T22:46:59.486Z,79.08
2019-02-22T22:52:07.288Z,66.01
2019-02-22T22:57:14.993Z,65.70
2019-02-22T23:02:22.862Z,68.49
2019-02-22T23:07:30.545Z,79.34
2019-02-22T23:12:38.260Z,73.02
2019-02-22T23:17:48.950Z,74.32
2019-02-22T23:22:46.656Z,80.19
2019-02-22T23:27:54.561Z,80.95
2019-02-22T23:33:02.498Z,83.30
2019-02-22T23:38:10.189Z,86.17
2019-02-22T23:43:18.137Z,88.37
2019-02-22T23:48:25.802Z,88.01
2019-02-22T23:53:33.489Z,90.19
2019-02-22T23:58:44.120Z,87.40
